sensor_id;sensor_type;location;lat;lon;timestamp;P1;durP1;ratioP1;P2;durP2;ratioP2
12425;SDS011;6277;49.824;9.562;2024-03-02T00:01:06;13.55;;;10.25;;
12425;SDS011;6277;49.824;9.562;2024-03-02T00:03:32;13.02;;;9.63;;
12425;SDS011;6277;49.824;9.562;2024-03-02T00:05:58;13.50;;;9.57;;
12425;SDS011;6277;49.824;9.562;2024-03-02T00:08:24;12.00;;;9.05;;
12425;SDS011;6277;49.824;9.562;2024-03-02T00:11:00;13.25;;;9.93;;
12425;SDS011;6277;49.824;9.562;2024-03-02T00:13:27;12.75;;;9.77;;
12425;SDS011;6277;49.824;9.562;2024-03-02T00:15:55;11.75;;;8.85;;
12425;SDS011;6277;49.824;9.562;2024-03-02T00:18:26;14.05;;;9.35;;
12425;SDS011;6277;49.824;9.562;2024-03-02T00:20:55;13.13;;;9.15;;
12425;SDS011;6277;49.824;9.562;2024-03-02T00:23:22;14.05;;;9.15;;
12425;SDS011;6277;49.824;9.562;2024-03-02T00:25:51;13.88;;;9.98;;
12425;SDS011;6277;49.824;9.562;2024-03-02T00:28:25;12.50;;;9.10;;
12425;SDS011;6277;49.824;9.562;2024-03-02T00:30:58;13.80;;;9.18;;
12425;SDS011;6277;49.824;9.562;2024-03-02T00:33:30;12.65;;;9.10;;
12425;SDS011;6277;49.824;9.562;2024-03-02T00:36:09;11.93;;;8.45;;
12425;SDS011;6277;49.824;9.562;2024-03-02T00:38:42;14.65;;;9.68;;
12425;SDS011;6277;49.824;9.562;2024-03-02T00:43:57;13.57;;;9.50;;
12425;SDS011;6277;49.824;9.562;2024-03-02T00:46:23;15.77;;;9.63;;
12425;SDS011;6277;49.824;9.562;2024-03-02T00:48:53;13.65;;;9.52;;
12425;SDS011;6277;49.824;9.562;2024-03-02T00:51:21;14.27;;;9.32;;
12425;SDS011;6277;49.824;9.562;2024-03-02T00:53:47;14.50;;;10.07;;
12425;SDS011;6277;49.824;9.562;2024-03-02T00:56:14;15.60;;;9.30;;
12425;SDS011;6277;49.824;9.562;2024-03-02T00:58:40;14.07;;;10.25;;
12425;SDS011;6277;49.824;9.562;2024-03-02T01:01:06;13.90;;;9.75;;
12425;SDS011;6277;49.824;9.562;2024-03-02T01:03:32;15.45;;;10.82;;
12425;SDS011;6277;49.824;9.562;2024-03-02T01:05:58;15.93;;;9.85;;
12425;SDS011;6277;49.824;9.562;2024-03-02T01:08:24;13.73;;;9.48;;
12425;SDS011;6277;49.824;9.562;2024-03-02T01:10:50;13.52;;;9.45;;
12425;SDS011;6277;49.824;9.562;2024-03-02T01:13:16;12.35;;;8.35;;
12425;SDS011;6277;49.824;9.562;2024-03-02T01:15:42;14.40;;;9.30;;
12425;SDS011;6277;49.824;9.562;2024-03-02T01:18:07;12.70;;;8.77;;
12425;SDS011;6277;49.824;9.562;2024-03-02T01:20:33;11.77;;;8.00;;
12425;SDS011;6277;49.824;9.562;2024-03-02T01:22:59;12.77;;;8.55;;
12425;SDS011;6277;49.824;9.562;2024-03-02T01:25:24;13.88;;;9.43;;
12425;SDS011;6277;49.824;9.562;2024-03-02T01:27:50;14.00;;;9.27;;
12425;SDS011;6277;49.824;9.562;2024-03-02T01:30:16;13.57;;;9.40;;
12425;SDS011;6277;49.824;9.562;2024-03-02T01:32:41;13.02;;;9.75;;
12425;SDS011;6277;49.824;9.562;2024-03-02T01:35:07;12.85;;;9.48;;
12425;SDS011;6277;49.824;9.562;2024-03-02T01:37:33;13.85;;;8.25;;
12425;SDS011;6277;49.824;9.562;2024-03-02T01:39:59;15.07;;;9.68;;
12425;SDS011;6277;49.824;9.562;2024-03-02T01:42:25;12.68;;;8.90;;
12425;SDS011;6277;49.824;9.562;2024-03-02T01:44:51;13.43;;;9.85;;
12425;SDS011;6277;49.824;9.562;2024-03-02T01:47:17;12.98;;;8.95;;
12425;SDS011;6277;49.824;9.562;2024-03-02T01:49:42;15.30;;;9.07;;
12425;SDS011;6277;49.824;9.562;2024-03-02T01:52:08;15.75;;;9.75;;
12425;SDS011;6277;49.824;9.562;2024-03-02T01:54:34;15.07;;;10.10;;
12425;SDS011;6277;49.824;9.562;2024-03-02T01:56:59;13.15;;;8.65;;
12425;SDS011;6277;49.824;9.562;2024-03-02T01:59:25;13.60;;;9.18;;
12425;SDS011;6277;49.824;9.562;2024-03-02T02:01:51;12.82;;;8.30;;
12425;SDS011;6277;49.824;9.562;2024-03-02T02:04:16;11.98;;;7.38;;
12425;SDS011;6277;49.824;9.562;2024-03-02T02:06:43;12.77;;;8.98;;
12425;SDS011;6277;49.824;9.562;2024-03-02T02:09:09;12.15;;;8.00;;
12425;SDS011;6277;49.824;9.562;2024-03-02T02:11:35;12.32;;;8.35;;
12425;SDS011;6277;49.824;9.562;2024-03-02T02:14:00;14.23;;;9.07;;
12425;SDS011;6277;49.824;9.562;2024-03-02T02:16:26;12.55;;;8.75;;
12425;SDS011;6277;49.824;9.562;2024-03-02T02:18:51;14.65;;;9.63;;
12425;SDS011;6277;49.824;9.562;2024-03-02T02:21:17;13.25;;;8.93;;
12425;SDS011;6277;49.824;9.562;2024-03-02T02:23:42;13.52;;;8.63;;
12425;SDS011;6277;49.824;9.562;2024-03-02T02:26:11;14.10;;;9.38;;
12425;SDS011;6277;49.824;9.562;2024-03-02T02:28:37;13.23;;;8.00;;
12425;SDS011;6277;49.824;9.562;2024-03-02T02:31:03;15.15;;;9.05;;
12425;SDS011;6277;49.824;9.562;2024-03-02T02:33:28;15.05;;;9.32;;
12425;SDS011;6277;49.824;9.562;2024-03-02T02:35:54;13.75;;;8.80;;
12425;SDS011;6277;49.824;9.562;2024-03-02T02:38:19;12.43;;;8.50;;
12425;SDS011;6277;49.824;9.562;2024-03-02T02:40:45;13.70;;;8.63;;
12425;SDS011;6277;49.824;9.562;2024-03-02T02:43:11;13.80;;;9.13;;
12425;SDS011;6277;49.824;9.562;2024-03-02T02:45:36;12.85;;;8.80;;
12425;SDS011;6277;49.824;9.562;2024-03-02T02:48:02;14.73;;;9.43;;
12425;SDS011;6277;49.824;9.562;2024-03-02T02:50:28;12.35;;;9.05;;
12425;SDS011;6277;49.824;9.562;2024-03-02T02:52:53;12.02;;;8.63;;
12425;SDS011;6277;49.824;9.562;2024-03-02T02:55:19;13.82;;;8.98;;
12425;SDS011;6277;49.824;9.562;2024-03-02T02:57:45;12.95;;;9.00;;
12425;SDS011;6277;49.824;9.562;2024-03-02T03:00:12;14.38;;;9.23;;
12425;SDS011;6277;49.824;9.562;2024-03-02T03:02:43;13.48;;;9.18;;
12425;SDS011;6277;49.824;9.562;2024-03-02T03:05:11;15.38;;;10.45;;
12425;SDS011;6277;49.824;9.562;2024-03-02T03:07:41;14.27;;;9.98;;
12425;SDS011;6277;49.824;9.562;2024-03-02T03:10:07;15.85;;;10.57;;
12425;SDS011;6277;49.824;9.562;2024-03-02T03:12:36;15.82;;;10.07;;
12425;SDS011;6277;49.824;9.562;2024-03-02T03:15:02;13.20;;;9.35;;
12425;SDS011;6277;49.824;9.562;2024-03-02T03:17:29;15.38;;;10.50;;
12425;SDS011;6277;49.824;9.562;2024-03-02T03:19:55;13.85;;;10.07;;
12425;SDS011;6277;49.824;9.562;2024-03-02T03:22:20;17.30;;;11.50;;
12425;SDS011;6277;49.824;9.562;2024-03-02T03:24:46;15.93;;;10.77;;
12425;SDS011;6277;49.824;9.562;2024-03-02T03:27:11;14.02;;;9.85;;
12425;SDS011;6277;49.824;9.562;2024-03-02T03:29:37;16.48;;;10.30;;
12425;SDS011;6277;49.824;9.562;2024-03-02T03:32:03;16.08;;;10.65;;
12425;SDS011;6277;49.824;9.562;2024-03-02T03:34:29;15.93;;;10.38;;
12425;SDS011;6277;49.824;9.562;2024-03-02T03:36:58;14.93;;;9.95;;
12425;SDS011;6277;49.824;9.562;2024-03-02T03:39:23;15.23;;;10.15;;
12425;SDS011;6277;49.824;9.562;2024-03-02T03:41:49;18.65;;;11.20;;
12425;SDS011;6277;49.824;9.562;2024-03-02T03:44:14;13.95;;;9.43;;
12425;SDS011;6277;49.824;9.562;2024-03-02T03:46:40;17.05;;;10.70;;
12425;SDS011;6277;49.824;9.562;2024-03-02T03:49:05;20.15;;;10.10;;
12425;SDS011;6277;49.824;9.562;2024-03-02T03:51:31;16.48;;;10.80;;
12425;SDS011;6277;49.824;9.562;2024-03-02T03:53:56;28.17;;;11.75;;
12425;SDS011;6277;49.824;9.562;2024-03-02T03:56:22;65.13;;;13.02;;
12425;SDS011;6277;49.824;9.562;2024-03-02T03:58:47;47.75;;;13.18;;
12425;SDS011;6277;49.824;9.562;2024-03-02T04:01:13;69.13;;;12.57;;
12425;SDS011;6277;49.824;9.562;2024-03-02T04:03:38;49.72;;;9.95;;
12425;SDS011;6277;49.824;9.562;2024-03-02T04:06:04;50.20;;;10.35;;
12425;SDS011;6277;49.824;9.562;2024-03-02T04:08:29;21.90;;;8.23;;
12425;SDS011;6277;49.824;9.562;2024-03-02T04:10:55;17.60;;;8.50;;
12425;SDS011;6277;49.824;9.562;2024-03-02T04:13:20;13.07;;;8.52;;
12425;SDS011;6277;49.824;9.562;2024-03-02T04:15:46;15.90;;;9.05;;
12425;SDS011;6277;49.824;9.562;2024-03-02T04:18:12;17.63;;;8.82;;
12425;SDS011;6277;49.824;9.562;2024-03-02T04:20:38;24.08;;;9.65;;
12425;SDS011;6277;49.824;9.562;2024-03-02T04:23:03;17.73;;;8.80;;
12425;SDS011;6277;49.824;9.562;2024-03-02T04:25:29;59.55;;;10.07;;
12425;SDS011;6277;49.824;9.562;2024-03-02T04:27:54;17.67;;;8.93;;
12425;SDS011;6277;49.824;9.562;2024-03-02T04:30:20;18.00;;;10.52;;
12425;SDS011;6277;49.824;9.562;2024-03-02T04:32:45;29.50;;;10.63;;
12425;SDS011;6277;49.824;9.562;2024-03-02T04:35:11;17.25;;;10.55;;
12425;SDS011;6277;49.824;9.562;2024-03-02T04:37:40;27.35;;;11.60;;
12425;SDS011;6277;49.824;9.562;2024-03-02T04:40:06;28.80;;;10.85;;
12425;SDS011;6277;49.824;9.562;2024-03-02T04:42:33;21.20;;;11.05;;
12425;SDS011;6277;49.824;9.562;2024-03-02T04:44:59;22.13;;;12.15;;
12425;SDS011;6277;49.824;9.562;2024-03-02T04:47:25;45.90;;;12.43;;
12425;SDS011;6277;49.824;9.562;2024-03-02T04:49:50;108.40;;;15.57;;
12425;SDS011;6277;49.824;9.562;2024-03-02T04:52:16;62.22;;;14.13;;
12425;SDS011;6277;49.824;9.562;2024-03-02T04:54:42;49.78;;;12.82;;
12425;SDS011;6277;49.824;9.562;2024-03-02T04:57:26;19.83;;;10.30;;
12425;SDS011;6277;49.824;9.562;2024-03-02T04:59:52;18.05;;;9.77;;
12425;SDS011;6277;49.824;9.562;2024-03-02T05:02:18;17.25;;;10.20;;
12425;SDS011;6277;49.824;9.562;2024-03-02T05:04:43;34.67;;;11.98;;
12425;SDS011;6277;49.824;9.562;2024-03-02T05:07:09;30.73;;;14.85;;
12425;SDS011;6277;49.824;9.562;2024-03-02T05:09:35;40.25;;;12.30;;
12425;SDS011;6277;49.824;9.562;2024-03-02T05:12:00;47.22;;;12.55;;
12425;SDS011;6277;49.824;9.562;2024-03-02T05:14:45;62.70;;;10.13;;
12425;SDS011;6277;49.824;9.562;2024-03-02T05:17:11;37.03;;;8.85;;
12425;SDS011;6277;49.824;9.562;2024-03-02T05:19:36;34.40;;;8.93;;
12425;SDS011;6277;49.824;9.562;2024-03-02T05:22:03;38.78;;;8.35;;
12425;SDS011;6277;49.824;9.562;2024-03-02T05:24:28;26.17;;;10.73;;
12425;SDS011;6277;49.824;9.562;2024-03-02T05:26:54;52.22;;;11.00;;
12425;SDS011;6277;49.824;9.562;2024-03-02T05:29:19;55.88;;;10.65;;
12425;SDS011;6277;49.824;9.562;2024-03-02T05:31:45;23.58;;;8.65;;
12425;SDS011;6277;49.824;9.562;2024-03-02T05:34:11;26.92;;;7.95;;
12425;SDS011;6277;49.824;9.562;2024-03-02T05:36:36;23.27;;;8.15;;
12425;SDS011;6277;49.824;9.562;2024-03-02T05:39:04;11.88;;;6.78;;
12425;SDS011;6277;49.824;9.562;2024-03-02T05:41:31;24.05;;;8.18;;
12425;SDS011;6277;49.824;9.562;2024-03-02T05:43:57;39.80;;;8.63;;
12425;SDS011;6277;49.824;9.562;2024-03-02T05:46:22;24.38;;;8.98;;
12425;SDS011;6277;49.824;9.562;2024-03-02T05:48:48;15.95;;;8.50;;
12425;SDS011;6277;49.824;9.562;2024-03-02T05:51:13;11.20;;;7.55;;
12425;SDS011;6277;49.824;9.562;2024-03-02T05:53:39;16.25;;;8.48;;
12425;SDS011;6277;49.824;9.562;2024-03-02T05:56:04;22.13;;;8.55;;
12425;SDS011;6277;49.824;9.562;2024-03-02T05:58:30;35.83;;;9.93;;
12425;SDS011;6277;49.824;9.562;2024-03-02T06:01:13;11.52;;;7.88;;
12425;SDS011;6277;49.824;9.562;2024-03-02T06:03:38;19.00;;;9.80;;
12425;SDS011;6277;49.824;9.562;2024-03-02T06:06:04;27.88;;;9.27;;
12425;SDS011;6277;49.824;9.562;2024-03-02T06:08:30;20.67;;;11.40;;
12425;SDS011;6277;49.824;9.562;2024-03-02T06:10:56;21.25;;;11.57;;
12425;SDS011;6277;49.824;9.562;2024-03-02T06:13:21;17.38;;;11.50;;
12425;SDS011;6277;49.824;9.562;2024-03-02T06:15:47;16.00;;;11.70;;
12425;SDS011;6277;49.824;9.562;2024-03-02T06:18:12;15.90;;;11.88;;
12425;SDS011;6277;49.824;9.562;2024-03-02T06:20:38;16.13;;;10.77;;
12425;SDS011;6277;49.824;9.562;2024-03-02T06:23:03;13.63;;;10.35;;
12425;SDS011;6277;49.824;9.562;2024-03-02T06:25:29;15.25;;;10.82;;
12425;SDS011;6277;49.824;9.562;2024-03-02T06:27:55;13.82;;;10.25;;
12425;SDS011;6277;49.824;9.562;2024-03-02T06:30:20;15.00;;;11.23;;
12425;SDS011;6277;49.824;9.562;2024-03-02T06:32:46;15.02;;;10.75;;
12425;SDS011;6277;49.824;9.562;2024-03-02T06:35:11;13.93;;;10.48;;
12425;SDS011;6277;49.824;9.562;2024-03-02T06:37:37;14.10;;;10.10;;
12425;SDS011;6277;49.824;9.562;2024-03-02T06:40:05;13.63;;;10.65;;
12425;SDS011;6277;49.824;9.562;2024-03-02T06:42:32;13.93;;;10.10;;
12425;SDS011;6277;49.824;9.562;2024-03-02T06:44:58;12.52;;;9.85;;
12425;SDS011;6277;49.824;9.562;2024-03-02T06:47:24;16.63;;;12.02;;
12425;SDS011;6277;49.824;9.562;2024-03-02T06:49:50;14.73;;;11.27;;
12425;SDS011;6277;49.824;9.562;2024-03-02T06:52:16;13.77;;;10.05;;
12425;SDS011;6277;49.824;9.562;2024-03-02T06:54:41;13.27;;;10.82;;
12425;SDS011;6277;49.824;9.562;2024-03-02T06:57:07;11.43;;;9.07;;
12425;SDS011;6277;49.824;9.562;2024-03-02T06:59:32;11.35;;;8.77;;
12425;SDS011;6277;49.824;9.562;2024-03-02T07:01:58;11.43;;;9.25;;
12425;SDS011;6277;49.824;9.562;2024-03-02T07:04:24;11.35;;;9.40;;
12425;SDS011;6277;49.824;9.562;2024-03-02T07:06:50;11.88;;;9.13;;
12425;SDS011;6277;49.824;9.562;2024-03-02T07:09:16;10.77;;;8.73;;
12425;SDS011;6277;49.824;9.562;2024-03-02T07:11:42;14.38;;;10.68;;
12425;SDS011;6277;49.824;9.562;2024-03-02T07:14:07;13.55;;;10.55;;
12425;SDS011;6277;49.824;9.562;2024-03-02T07:16:32;13.15;;;9.82;;
12425;SDS011;6277;49.824;9.562;2024-03-02T07:18:59;13.13;;;10.23;;
12425;SDS011;6277;49.824;9.562;2024-03-02T07:21:26;12.23;;;9.43;;
12425;SDS011;6277;49.824;9.562;2024-03-02T07:23:53;20.08;;;13.75;;
12425;SDS011;6277;49.824;9.562;2024-03-02T07:26:18;16.10;;;9.57;;
12425;SDS011;6277;49.824;9.562;2024-03-02T07:28:47;21.73;;;9.05;;
12425;SDS011;6277;49.824;9.562;2024-03-02T07:31:14;29.65;;;9.45;;
12425;SDS011;6277;49.824;9.562;2024-03-02T07:33:40;28.05;;;7.55;;
12425;SDS011;6277;49.824;9.562;2024-03-02T07:36:06;66.30;;;8.27;;
12425;SDS011;6277;49.824;9.562;2024-03-02T07:38:33;65.10;;;7.70;;
12425;SDS011;6277;49.824;9.562;2024-03-02T07:41:00;68.32;;;7.93;;
12425;SDS011;6277;49.824;9.562;2024-03-02T07:43:25;44.10;;;7.18;;
12425;SDS011;6277;49.824;9.562;2024-03-02T07:45:51;48.22;;;7.30;;
12425;SDS011;6277;49.824;9.562;2024-03-02T07:48:17;29.52;;;6.32;;
12425;SDS011;6277;49.824;9.562;2024-03-02T07:50:42;40.15;;;7.07;;
12425;SDS011;6277;49.824;9.562;2024-03-02T07:53:08;25.02;;;7.18;;
12425;SDS011;6277;49.824;9.562;2024-03-02T07:55:34;17.48;;;6.00;;
12425;SDS011;6277;49.824;9.562;2024-03-02T07:58:02;29.33;;;6.00;;
12425;SDS011;6277;49.824;9.562;2024-03-02T08:00:28;18.85;;;6.75;;
12425;SDS011;6277;49.824;9.562;2024-03-02T08:02:54;17.98;;;6.10;;
12425;SDS011;6277;49.824;9.562;2024-03-02T08:05:20;14.10;;;7.13;;
12425;SDS011;6277;49.824;9.562;2024-03-02T08:07:46;11.63;;;6.95;;
12425;SDS011;6277;49.824;9.562;2024-03-02T08:10:12;8.60;;;6.75;;
12425;SDS011;6277;49.824;9.562;2024-03-02T08:12:38;10.75;;;8.15;;
12425;SDS011;6277;49.824;9.562;2024-03-02T08:15:03;16.38;;;11.82;;
12425;SDS011;6277;49.824;9.562;2024-03-02T08:17:30;23.63;;;15.63;;
12425;SDS011;6277;49.824;9.562;2024-03-02T08:19:55;23.88;;;15.40;;
12425;SDS011;6277;49.824;9.562;2024-03-02T08:22:21;15.75;;;13.10;;
12425;SDS011;6277;49.824;9.562;2024-03-02T08:24:48;13.77;;;10.38;;
12425;SDS011;6277;49.824;9.562;2024-03-02T08:27:13;10.55;;;9.25;;
12425;SDS011;6277;49.824;9.562;2024-03-02T08:29:40;10.30;;;8.43;;
12425;SDS011;6277;49.824;9.562;2024-03-02T08:32:06;11.32;;;9.05;;
12425;SDS011;6277;49.824;9.562;2024-03-02T08:34:32;10.93;;;8.73;;
12425;SDS011;6277;49.824;9.562;2024-03-02T08:36:58;11.73;;;9.23;;
12425;SDS011;6277;49.824;9.562;2024-03-02T08:39:24;14.27;;;10.70;;
12425;SDS011;6277;49.824;9.562;2024-03-02T08:41:50;15.48;;;11.27;;
12425;SDS011;6277;49.824;9.562;2024-03-02T08:44:16;14.75;;;9.05;;
12425;SDS011;6277;49.824;9.562;2024-03-02T08:46:42;35.03;;;9.75;;
12425;SDS011;6277;49.824;9.562;2024-03-02T08:49:08;36.55;;;10.73;;
12425;SDS011;6277;49.824;9.562;2024-03-02T08:51:34;31.60;;;10.15;;
12425;SDS011;6277;49.824;9.562;2024-03-02T08:53:59;17.30;;;8.77;;
12425;SDS011;6277;49.824;9.562;2024-03-02T08:56:25;19.17;;;8.40;;
12425;SDS011;6277;49.824;9.562;2024-03-02T08:58:51;15.50;;;7.63;;
12425;SDS011;6277;49.824;9.562;2024-03-02T09:01:17;8.40;;;7.15;;
12425;SDS011;6277;49.824;9.562;2024-03-02T09:03:44;10.82;;;8.20;;
12425;SDS011;6277;49.824;9.562;2024-03-02T09:06:10;11.13;;;8.93;;
12425;SDS011;6277;49.824;9.562;2024-03-02T09:08:36;11.52;;;9.30;;
12425;SDS011;6277;49.824;9.562;2024-03-02T09:11:03;14.57;;;11.00;;
12425;SDS011;6277;49.824;9.562;2024-03-02T09:13:29;13.95;;;11.00;;
12425;SDS011;6277;49.824;9.562;2024-03-02T09:15:55;15.82;;;11.32;;
12425;SDS011;6277;49.824;9.562;2024-03-02T09:18:21;15.88;;;11.77;;
12425;SDS011;6277;49.824;9.562;2024-03-02T09:20:46;14.68;;;11.27;;
12425;SDS011;6277;49.824;9.562;2024-03-02T09:23:11;14.32;;;10.68;;
12425;SDS011;6277;49.824;9.562;2024-03-02T09:25:37;13.45;;;10.23;;
12425;SDS011;6277;49.824;9.562;2024-03-02T09:28:03;14.52;;;11.40;;
12425;SDS011;6277;49.824;9.562;2024-03-02T09:30:28;13.38;;;10.60;;
12425;SDS011;6277;49.824;9.562;2024-03-02T09:32:54;13.70;;;11.18;;
12425;SDS011;6277;49.824;9.562;2024-03-02T09:35:19;22.55;;;17.17;;
12425;SDS011;6277;49.824;9.562;2024-03-02T09:37:45;16.90;;;12.52;;
12425;SDS011;6277;49.824;9.562;2024-03-02T09:40:11;16.40;;;11.52;;
12425;SDS011;6277;49.824;9.562;2024-03-02T09:42:37;14.35;;;11.30;;
12425;SDS011;6277;49.824;9.562;2024-03-02T09:45:03;15.27;;;10.82;;
12425;SDS011;6277;49.824;9.562;2024-03-02T09:47:30;15.30;;;11.65;;
12425;SDS011;6277;49.824;9.562;2024-03-02T09:49:56;13.73;;;10.73;;
12425;SDS011;6277;49.824;9.562;2024-03-02T09:52:22;13.20;;;10.75;;
12425;SDS011;6277;49.824;9.562;2024-03-02T09:54:48;13.73;;;10.32;;
12425;SDS011;6277;49.824;9.562;2024-03-02T09:57:14;13.98;;;10.77;;
12425;SDS011;6277;49.824;9.562;2024-03-02T09:59:40;14.27;;;10.40;;
12425;SDS011;6277;49.824;9.562;2024-03-02T10:02:05;12.82;;;9.98;;
12425;SDS011;6277;49.824;9.562;2024-03-02T10:04:32;14.73;;;10.48;;
12425;SDS011;6277;49.824;9.562;2024-03-02T10:07:14;14.05;;;10.57;;
12425;SDS011;6277;49.824;9.562;2024-03-02T10:09:41;15.45;;;10.40;;
12425;SDS011;6277;49.824;9.562;2024-03-02T10:12:08;13.45;;;10.10;;
12425;SDS011;6277;49.824;9.562;2024-03-02T10:14:34;15.07;;;11.00;;
12425;SDS011;6277;49.824;9.562;2024-03-02T10:17:07;13.02;;;10.13;;
12425;SDS011;6277;49.824;9.562;2024-03-02T10:19:33;13.63;;;10.57;;
12425;SDS011;6277;49.824;9.562;2024-03-02T10:22:03;14.52;;;9.90;;
12425;SDS011;6277;49.824;9.562;2024-03-02T10:24:49;13.60;;;10.38;;
12425;SDS011;6277;49.824;9.562;2024-03-02T10:29:41;14.70;;;10.25;;
12425;SDS011;6277;49.824;9.562;2024-03-02T10:32:10;14.25;;;10.77;;
12425;SDS011;6277;49.824;9.562;2024-03-02T10:34:36;14.80;;;10.75;;
12425;SDS011;6277;49.824;9.562;2024-03-02T10:37:02;14.43;;;10.30;;
12425;SDS011;6277;49.824;9.562;2024-03-02T10:39:28;14.90;;;10.82;;
12425;SDS011;6277;49.824;9.562;2024-03-02T10:41:55;15.02;;;11.20;;
12425;SDS011;6277;49.824;9.562;2024-03-02T10:44:21;13.25;;;10.20;;
12425;SDS011;6277;49.824;9.562;2024-03-02T10:46:48;13.88;;;10.20;;
12425;SDS011;6277;49.824;9.562;2024-03-02T10:49:15;16.13;;;11.05;;
12425;SDS011;6277;49.824;9.562;2024-03-02T10:51:42;13.43;;;10.10;;
12425;SDS011;6277;49.824;9.562;2024-03-02T10:54:08;13.65;;;9.88;;
12425;SDS011;6277;49.824;9.562;2024-03-02T10:56:37;11.77;;;9.05;;
12425;SDS011;6277;49.824;9.562;2024-03-02T11:01:47;13.10;;;9.57;;
12425;SDS011;6277;49.824;9.562;2024-03-02T11:04:17;12.90;;;9.80;;
12425;SDS011;6277;49.824;9.562;2024-03-02T11:06:51;13.65;;;9.73;;
12425;SDS011;6277;49.824;9.562;2024-03-02T11:09:20;13.35;;;9.48;;
12425;SDS011;6277;49.824;9.562;2024-03-02T11:11:49;12.63;;;8.98;;
12425;SDS011;6277;49.824;9.562;2024-03-02T11:14:37;11.10;;;8.35;;
12425;SDS011;6277;49.824;9.562;2024-03-02T11:17:09;10.55;;;8.05;;
12425;SDS011;6277;49.824;9.562;2024-03-02T11:19:37;12.55;;;9.52;;
12425;SDS011;6277;49.824;9.562;2024-03-02T11:22:04;12.38;;;9.38;;
12425;SDS011;6277;49.824;9.562;2024-03-02T11:24:31;10.75;;;8.18;;
12425;SDS011;6277;49.824;9.562;2024-03-02T11:27:00;11.73;;;8.48;;
12425;SDS011;6277;49.824;9.562;2024-03-02T11:32:22;9.25;;;6.85;;
12425;SDS011;6277;49.824;9.562;2024-03-02T11:34:50;10.68;;;8.05;;
12425;SDS011;6277;49.824;9.562;2024-03-02T11:37:17;10.55;;;8.10;;
12425;SDS011;6277;49.824;9.562;2024-03-02T11:39:46;11.60;;;8.45;;
12425;SDS011;6277;49.824;9.562;2024-03-02T11:42:15;10.70;;;8.30;;
12425;SDS011;6277;49.824;9.562;2024-03-02T11:44:42;10.60;;;8.05;;
12425;SDS011;6277;49.824;9.562;2024-03-02T11:47:10;11.20;;;8.23;;
12425;SDS011;6277;49.824;9.562;2024-03-02T11:49:43;11.63;;;8.43;;
12425;SDS011;6277;49.824;9.562;2024-03-02T11:52:16;11.55;;;8.45;;
12425;SDS011;6277;49.824;9.562;2024-03-02T11:54:44;11.20;;;8.30;;
12425;SDS011;6277;49.824;9.562;2024-03-02T11:57:16;9.70;;;8.25;;
12425;SDS011;6277;49.824;9.562;2024-03-02T11:59:44;10.10;;;8.10;;
12425;SDS011;6277;49.824;9.562;2024-03-02T12:02:17;10.15;;;7.65;;
12425;SDS011;6277;49.824;9.562;2024-03-02T12:04:46;10.95;;;8.10;;
12425;SDS011;6277;49.824;9.562;2024-03-02T12:07:19;9.77;;;7.55;;
12425;SDS011;6277;49.824;9.562;2024-03-02T12:09:46;9.18;;;7.18;;
12425;SDS011;6277;49.824;9.562;2024-03-02T12:12:12;9.93;;;8.10;;
12425;SDS011;6277;49.824;9.562;2024-03-02T12:14:49;9.43;;;7.40;;
12425;SDS011;6277;49.824;9.562;2024-03-02T12:19:41;8.70;;;6.60;;
12425;SDS011;6277;49.824;9.562;2024-03-02T12:22:06;8.57;;;6.63;;
12425;SDS011;6277;49.824;9.562;2024-03-02T12:24:32;8.45;;;7.03;;
12425;SDS011;6277;49.824;9.562;2024-03-02T12:26:58;8.63;;;6.53;;
12425;SDS011;6277;49.824;9.562;2024-03-02T12:29:23;8.65;;;6.63;;
12425;SDS011;6277;49.824;9.562;2024-03-02T12:31:50;9.63;;;6.97;;
12425;SDS011;6277;49.824;9.562;2024-03-02T12:34:21;8.52;;;6.40;;
12425;SDS011;6277;49.824;9.562;2024-03-02T12:36:47;7.35;;;6.10;;
12425;SDS011;6277;49.824;9.562;2024-03-02T12:39:17;7.32;;;5.93;;
12425;SDS011;6277;49.824;9.562;2024-03-02T12:41:44;7.57;;;6.00;;
12425;SDS011;6277;49.824;9.562;2024-03-02T12:44:11;7.97;;;5.75;;
12425;SDS011;6277;49.824;9.562;2024-03-02T12:46:36;6.10;;;4.90;;
12425;SDS011;6277;49.824;9.562;2024-03-02T12:49:09;7.32;;;4.85;;
12425;SDS011;6277;49.824;9.562;2024-03-02T12:51:39;6.13;;;4.63;;
12425;SDS011;6277;49.824;9.562;2024-03-02T12:54:06;5.75;;;4.07;;
12425;SDS011;6277;49.824;9.562;2024-03-02T12:56:33;4.97;;;4.10;;
12425;SDS011;6277;49.824;9.562;2024-03-02T12:59:00;5.63;;;4.43;;
12425;SDS011;6277;49.824;9.562;2024-03-02T13:01:25;5.53;;;4.25;;
12425;SDS011;6277;49.824;9.562;2024-03-02T13:03:52;5.75;;;4.65;;
12425;SDS011;6277;49.824;9.562;2024-03-02T13:06:20;5.63;;;4.38;;
12425;SDS011;6277;49.824;9.562;2024-03-02T13:08:46;5.80;;;4.38;;
12425;SDS011;6277;49.824;9.562;2024-03-02T13:11:12;5.35;;;4.60;;
12425;SDS011;6277;49.824;9.562;2024-03-02T13:13:41;4.70;;;3.75;;
12425;SDS011;6277;49.824;9.562;2024-03-02T13:16:08;4.90;;;4.00;;
12425;SDS011;6277;49.824;9.562;2024-03-02T13:18:35;4.13;;;3.67;;
12425;SDS011;6277;49.824;9.562;2024-03-02T13:21:00;5.20;;;3.75;;
12425;SDS011;6277;49.824;9.562;2024-03-02T13:23:26;4.32;;;3.85;;
12425;SDS011;6277;49.824;9.562;2024-03-02T13:25:52;4.45;;;3.65;;
12425;SDS011;6277;49.824;9.562;2024-03-02T13:28:17;3.78;;;2.88;;
12425;SDS011;6277;49.824;9.562;2024-03-02T13:30:43;3.63;;;2.80;;
12425;SDS011;6277;49.824;9.562;2024-03-02T13:33:08;3.50;;;2.88;;
12425;SDS011;6277;49.824;9.562;2024-03-02T13:35:34;2.38;;;1.85;;
12425;SDS011;6277;49.824;9.562;2024-03-02T13:37:59;5.35;;;3.35;;
12425;SDS011;6277;49.824;9.562;2024-03-02T13:40:25;3.67;;;2.45;;
12425;SDS011;6277;49.824;9.562;2024-03-02T13:42:51;2.13;;;1.88;;
12425;SDS011;6277;49.824;9.562;2024-03-02T13:45:18;2.10;;;1.80;;
12425;SDS011;6277;49.824;9.562;2024-03-02T13:47:44;2.05;;;1.50;;
12425;SDS011;6277;49.824;9.562;2024-03-02T13:50:09;1.65;;;1.35;;
12425;SDS011;6277;49.824;9.562;2024-03-02T13:52:35;1.42;;;1.15;;
12425;SDS011;6277;49.824;9.562;2024-03-02T13:55:01;2.05;;;1.35;;
12425;SDS011;6277;49.824;9.562;2024-03-02T13:57:27;2.03;;;1.58;;
12425;SDS011;6277;49.824;9.562;2024-03-02T13:59:53;1.67;;;1.38;;
12425;SDS011;6277;49.824;9.562;2024-03-02T14:02:19;2.15;;;1.30;;
12425;SDS011;6277;49.824;9.562;2024-03-02T14:04:45;1.83;;;1.40;;
12425;SDS011;6277;49.824;9.562;2024-03-02T14:07:13;3.42;;;1.25;;
12425;SDS011;6277;49.824;9.562;2024-03-02T14:09:38;1.88;;;1.30;;
12425;SDS011;6277;49.824;9.562;2024-03-02T14:12:04;1.70;;;1.33;;
12425;SDS011;6277;49.824;9.562;2024-03-02T14:14:30;1.50;;;1.10;;
12425;SDS011;6277;49.824;9.562;2024-03-02T14:16:56;1.98;;;1.38;;
12425;SDS011;6277;49.824;9.562;2024-03-02T14:19:25;2.42;;;1.95;;
12425;SDS011;6277;49.824;9.562;2024-03-02T14:21:51;3.03;;;2.00;;
12425;SDS011;6277;49.824;9.562;2024-03-02T14:24:16;2.60;;;1.83;;
12425;SDS011;6277;49.824;9.562;2024-03-02T14:26:42;2.90;;;2.10;;
12425;SDS011;6277;49.824;9.562;2024-03-02T14:29:08;2.30;;;1.90;;
12425;SDS011;6277;49.824;9.562;2024-03-02T14:31:33;3.28;;;1.80;;
12425;SDS011;6277;49.824;9.562;2024-03-02T14:33:59;1.75;;;1.52;;
12425;SDS011;6277;49.824;9.562;2024-03-02T14:36:25;2.30;;;1.60;;
12425;SDS011;6277;49.824;9.562;2024-03-02T14:38:52;1.63;;;1.33;;
12425;SDS011;6277;49.824;9.562;2024-03-02T14:41:18;1.75;;;1.23;;
12425;SDS011;6277;49.824;9.562;2024-03-02T14:43:44;1.20;;;0.80;;
12425;SDS011;6277;49.824;9.562;2024-03-02T14:46:09;1.55;;;0.82;;
12425;SDS011;6277;49.824;9.562;2024-03-02T14:48:36;1.10;;;0.82;;
12425;SDS011;6277;49.824;9.562;2024-03-02T14:51:02;1.77;;;0.93;;
12425;SDS011;6277;49.824;9.562;2024-03-02T14:53:28;0.73;;;0.70;;
12425;SDS011;6277;49.824;9.562;2024-03-02T14:55:53;0.63;;;0.50;;